Alden, Minnesota
Current Conditions -  °F | °C
As of 9:41 AM on Friday 21 Nov 2014 (Local Time) from KAEL Reporting Station
Clear Clear  
Wind Chill:   Ceiling: Unl
Heat Index: 19°   Visibility: 10mi
Dew Point: 10°   Wind: 14mph
Humidity: 68%   Direction: 170°S
Pressure: 30.19"   Gusts: 22mph
Location:  43.67°N, 93.58°W
Report Text: KAEL 211541Z AUTO 17012G19KT 10SM CLR M07/M12 A3019 RMK AO2
Loading
Personal Weather Stations






























Interactive Weather Map New forecast layout! Learn more

10-Day Weather Forecast

Advertisements
Track Severe Weather on mobile